createdAt,value
2023-03-23T15:58:54.878Z,8.60
2023-03-23T16:01:28.546Z,14.55
2023-03-23T16:04:10.397Z,8.45
2023-03-23T16:06:44.733Z,9.30
2023-03-23T16:09:21.906Z,14.65
2023-03-23T16:11:52.289Z,13.93
2023-03-23T16:14:21.185Z,8.53
2023-03-23T16:16:53.177Z,8.70
2023-03-23T16:19:31.198Z,10.18
2023-03-23T16:22:00.209Z,12.30
2023-03-23T16:24:28.873Z,9.33
2023-03-23T16:26:57.574Z,9.98
2023-03-23T16:32:00.359Z,12.63
2023-03-23T16:34:50.103Z,15.13
2023-03-23T16:37:20.938Z,11.55
2023-03-23T16:39:51.640Z,15.45
2023-03-23T16:42:24.806Z,14.85
2023-03-23T16:45:18.189Z,9.65
2023-03-23T16:47:47.472Z,24.98
2023-03-23T16:50:21.856Z,11.25
2023-03-23T16:52:50.746Z,17.35
2023-03-23T16:55:21.388Z,13.05
2023-03-23T16:57:54.155Z,22.17
2023-03-23T17:00:23.441Z,15.93
2023-03-23T17:02:53.894Z,14.53
2023-03-23T17:05:25.083Z,19.27
2023-03-23T17:07:58.950Z,18.70
2023-03-23T17:10:33.123Z,12.35
2023-03-23T17:13:02.239Z,15.35
2023-03-23T17:15:31.104Z,18.25
2023-03-23T17:17:59.972Z,20.92
2023-03-23T17:20:28.726Z,13.60
2023-03-23T17:22:57.529Z,14.35
2023-03-23T17:25:32.702Z,22.60
2023-03-23T17:28:05.399Z,30.23
2023-03-23T17:30:32.740Z,19.40
2023-03-23T17:33:01.542Z,21.90
2023-03-23T17:35:30.677Z,36.73
2023-03-23T17:37:59.858Z,21.62
2023-03-23T17:40:30.059Z,27.22
2023-03-23T17:42:58.806Z,19.25
2023-03-23T17:45:27.559Z,17.98
2023-03-23T17:47:58.103Z,21.05
2023-03-23T17:50:27.069Z,22.37
2023-03-23T17:52:57.177Z,17.57
2023-03-23T17:55:26.005Z,23.50
2023-03-23T17:57:56.378Z,38.95
2023-03-23T18:00:26.718Z,138.75
2023-03-23T18:02:56.769Z,94.87
2023-03-23T18:05:29.678Z,27.98
2023-03-23T18:07:58.808Z,93.90
2023-03-23T18:10:27.647Z,77.00
2023-03-23T18:12:56.877Z,96.85
2023-03-23T18:15:28.191Z,62.05
2023-03-23T18:17:59.724Z,104.17
2023-03-23T18:20:31.413Z,80.72
2023-03-23T18:23:05.526Z,38.73
2023-03-23T18:25:46.143Z,42.88
2023-03-23T18:28:29.649Z,26.05
2023-03-23T18:31:12.230Z,21.27
2023-03-23T18:36:40.941Z,23.13
2023-03-23T18:39:17.619Z,24.75
2023-03-23T18:41:44.056Z,22.90
2023-03-23T18:44:16.716Z,27.00
2023-03-23T18:46:54.699Z,21.60
2023-03-23T18:49:34.996Z,21.67
2023-03-23T18:52:04.706Z,19.45
2023-03-23T18:54:54.674Z,17.40
2023-03-23T18:57:10.049Z,16.10
2023-03-23T18:59:45.711Z,24.53
2023-03-23T19:02:25.319Z,74.37
2023-03-23T19:05:02.313Z,87.40
2023-03-23T19:07:37.922Z,48.87
2023-03-23T19:12:57.698Z,25.70
2023-03-23T19:15:26.413Z,32.90
2023-03-23T19:17:58.144Z,28.23
2023-03-23T19:20:54.920Z,19.07
2023-03-23T19:22:57.945Z,28.45
2023-03-23T19:25:29.757Z,39.95
2023-03-23T19:28:45.423Z,42.53
2023-03-23T19:30:40.888Z,43.80
2023-03-23T19:33:14.339Z,37.03
2023-03-23T19:35:49.094Z,39.43
2023-03-23T19:38:23.491Z,33.42
2023-03-23T19:41:03.472Z,31.13
2023-03-23T19:43:42.096Z,34.47
2023-03-23T19:46:43.184Z,63.67
2023-03-23T19:49:22.146Z,31.00
2023-03-23T19:54:58.728Z,34.67
2023-03-23T19:57:30.743Z,51.88
2023-03-23T20:00:06.634Z,33.70
2023-03-23T20:02:46.514Z,38.97
2023-03-23T20:05:18.834Z,39.03
2023-03-23T20:08:02.709Z,32.38
2023-03-23T20:10:42.534Z,35.73
2023-03-23T20:13:14.403Z,32.07
2023-03-23T20:15:43.889Z,21.70
2023-03-23T20:18:16.948Z,22.30
2023-03-23T20:20:50.003Z,24.70
2023-03-23T20:23:18.690Z,34.30
2023-03-23T20:25:46.951Z,27.27
2023-03-23T20:28:16.669Z,23.50
2023-03-23T20:30:49.335Z,24.10
2023-03-23T20:33:25.388Z,22.70
2023-03-23T20:35:58.402Z,27.17
2023-03-23T20:38:29.693Z,25.30
2023-03-23T20:41:06.489Z,21.43
2023-03-23T20:43:38.465Z,25.67
2023-03-23T20:46:17.530Z,24.83
2023-03-23T20:48:48.259Z,20.50
2023-03-23T20:51:22.095Z,29.17
2023-03-23T20:56:51.540Z,26.97
2023-03-23T21:01:01.223Z,17.50
2023-03-23T21:02:33.471Z,24.67
2023-03-23T21:05:06.017Z,17.83
2023-03-23T21:07:40.989Z,38.73
2023-03-23T21:10:28.427Z,25.97
2023-03-23T21:12:57.349Z,19.67
2023-03-23T21:15:29.489Z,20.00
2023-03-23T21:18:08.800Z,22.90
2023-03-23T21:20:49.882Z,22.13
2023-03-23T21:23:43.144Z,18.60
2023-03-23T21:29:14.143Z,25.10
2023-03-23T21:31:46.143Z,22.07
2023-03-23T21:34:23.390Z,26.13
2023-03-23T21:36:55.628Z,22.47
2023-03-23T21:39:29.913Z,26.33
2023-03-23T21:42:50.900Z,25.13
2023-03-23T21:44:51.218Z,22.33
2023-03-23T21:47:36.082Z,22.23
2023-03-23T21:50:07.410Z,24.33
2023-03-23T21:52:38.206Z,24.13
2023-03-23T21:55:11.921Z,18.20
2023-03-23T21:57:45.102Z,23.40
2023-03-23T22:00:21.529Z,20.20
2023-03-23T22:02:56.116Z,22.47
2023-03-23T22:05:25.007Z,19.67
2023-03-23T22:07:54.387Z,18.63
2023-03-23T22:10:23.399Z,20.90
2023-03-23T22:12:54.992Z,22.20
2023-03-23T22:15:24.570Z,20.33
2023-03-23T22:17:53.356Z,18.30
2023-03-23T22:20:22.213Z,16.37
2023-03-23T22:22:54.470Z,23.07
2023-03-23T22:25:24.393Z,17.50
2023-03-23T22:27:53.157Z,21.13
2023-03-23T22:30:21.957Z,17.27
2023-03-23T22:32:50.918Z,22.20
2023-03-23T22:35:19.787Z,17.73
2023-03-23T22:37:48.772Z,17.43
2023-03-23T22:40:21.432Z,19.33
2023-03-23T22:43:01.052Z,18.07
2023-03-23T22:45:34.455Z,18.43
2023-03-23T22:48:06.647Z,18.17
2023-03-23T22:50:35.795Z,18.63
2023-03-23T22:53:05.917Z,19.73
2023-03-23T22:55:34.830Z,17.73
2023-03-23T22:58:05.231Z,18.23
2023-03-23T23:00:38.513Z,22.50
2023-03-23T23:03:08.270Z,17.10
2023-03-23T23:05:40.281Z,19.57
2023-03-23T23:08:14.158Z,17.43
2023-03-23T23:10:46.374Z,17.87
2023-03-23T23:13:15.794Z,15.73
2023-03-23T23:15:47.456Z,16.93
2023-03-23T23:18:20.420Z,18.27
2023-03-23T23:20:57.837Z,19.03
2023-03-23T23:23:27.637Z,21.80
2023-03-23T23:26:02.696Z,28.47
2023-03-23T23:28:32.951Z,24.97
2023-03-23T23:31:02.039Z,24.77
2023-03-23T23:33:31.001Z,24.83
2023-03-23T23:35:59.798Z,25.63
2023-03-23T23:38:28.619Z,22.57
2023-03-23T23:40:57.843Z,22.67
2023-03-23T23:43:26.641Z,29.30
2023-03-23T23:45:55.419Z,25.93
2023-03-23T23:48:25.682Z,23.47
2023-03-23T23:50:54.393Z,20.20
2023-03-23T23:53:24.792Z,22.60
2023-03-23T23:55:54.123Z,21.80
2023-03-23T23:58:24.138Z,29.73
